createdAt,value
2019-03-10T00:00:55.899Z,4.40
2019-03-10T00:03:25.635Z,3.50
2019-03-10T00:05:55.488Z,4.03
2019-03-10T00:08:25.329Z,4.20
2019-03-10T00:10:55.187Z,4.00
2019-03-10T00:13:25.026Z,4.23
2019-03-10T00:15:54.819Z,3.67
2019-03-10T00:18:24.611Z,4.37
2019-03-10T00:20:54.444Z,3.50
2019-03-10T00:23:24.293Z,4.27
2019-03-10T00:25:54.116Z,3.70
2019-03-10T00:28:23.982Z,3.60
2019-03-10T00:30:53.700Z,3.97
2019-03-10T00:33:23.450Z,4.27
2019-03-10T00:35:53.260Z,3.80
2019-03-10T00:38:23.038Z,3.80
2019-03-10T00:41:07.601Z,3.40
2019-03-10T00:43:45.581Z,3.30
2019-03-10T00:46:38.043Z,3.77
2019-03-10T00:49:23.267Z,3.30
2019-03-10T00:52:01.601Z,3.20
2019-03-10T00:54:31.361Z,3.10
2019-03-10T00:57:01.170Z,3.00
2019-03-10T00:59:31.641Z,3.03
2019-03-10T01:02:01.359Z,3.20
2019-03-10T01:04:31.156Z,3.77
2019-03-10T01:07:01.805Z,3.00
2019-03-10T01:09:31.877Z,3.03
2019-03-10T01:12:02.204Z,3.10
2019-03-10T01:14:31.938Z,3.40
2019-03-10T01:17:02.996Z,3.37
2019-03-10T01:19:33.436Z,3.33
2019-03-10T01:22:03.280Z,3.57
2019-03-10T01:24:33.014Z,2.93
2019-03-10T01:27:02.871Z,3.17
2019-03-10T01:29:32.615Z,3.70
2019-03-10T01:32:32.895Z,3.33
2019-03-10T01:35:11.365Z,3.70
2019-03-10T01:37:41.121Z,3.50
2019-03-10T01:40:10.916Z,3.67
2019-03-10T01:42:40.767Z,3.90
2019-03-10T01:45:12.493Z,3.10
2019-03-10T01:47:42.198Z,3.73
2019-03-10T01:50:13.868Z,4.27
2019-03-10T01:52:43.747Z,3.60
2019-03-10T01:55:13.573Z,3.80
2019-03-10T01:57:43.310Z,3.90
2019-03-10T02:00:17.777Z,3.67
2019-03-10T02:02:47.570Z,3.50
2019-03-10T02:05:17.223Z,3.20
2019-03-10T02:07:46.929Z,3.97
2019-03-10T02:10:16.715Z,3.50
2019-03-10T02:12:46.640Z,3.23
2019-03-10T02:15:17.530Z,3.03
2019-03-10T02:17:47.422Z,3.80
2019-03-10T02:20:18.327Z,3.07
2019-03-10T02:22:48.115Z,3.50
2019-03-10T02:25:17.879Z,3.27
2019-03-10T02:27:47.523Z,3.67
2019-03-10T02:30:18.205Z,3.40
2019-03-10T02:32:47.945Z,3.47
2019-03-10T02:35:17.728Z,2.93
2019-03-10T02:37:47.445Z,3.00
2019-03-10T02:40:17.325Z,2.87
2019-03-10T02:42:47.099Z,2.70
2019-03-10T02:45:16.953Z,3.27
2019-03-10T02:47:46.595Z,2.90
2019-03-10T02:50:16.540Z,3.10
2019-03-10T02:52:46.219Z,2.70
2019-03-10T02:55:15.999Z,2.70
2019-03-10T02:57:45.786Z,3.10
2019-03-10T03:00:15.593Z,3.47
2019-03-10T03:02:45.378Z,2.93
2019-03-10T03:05:15.179Z,2.77
2019-03-10T03:07:44.918Z,3.37
2019-03-10T03:10:14.954Z,2.80
2019-03-10T03:12:44.719Z,2.83
2019-03-10T03:15:14.602Z,2.70
2019-03-10T03:17:44.364Z,2.83
2019-03-10T03:20:14.184Z,2.70
2019-03-10T03:22:43.890Z,3.57
2019-03-10T03:25:13.763Z,3.40
2019-03-10T03:27:43.514Z,3.10
2019-03-10T03:30:18.156Z,3.63
2019-03-10T03:32:48.050Z,3.50
2019-03-10T03:35:54.293Z,3.20
2019-03-10T03:38:29.728Z,2.70
2019-03-10T03:41:05.426Z,3.37
2019-03-10T03:43:35.106Z,3.40
2019-03-10T03:46:04.945Z,3.77
2019-03-10T03:48:34.661Z,3.23
2019-03-10T03:51:04.414Z,3.77
2019-03-10T03:53:34.238Z,3.40
2019-03-10T03:56:04.004Z,3.73
2019-03-10T03:58:33.737Z,3.23
2019-03-10T04:01:07.924Z,2.80
2019-03-10T04:03:37.612Z,3.70
2019-03-10T04:06:07.262Z,3.07
2019-03-10T04:08:37.040Z,4.17
2019-03-10T04:11:06.719Z,3.83
2019-03-10T04:13:36.420Z,3.13
2019-03-10T04:16:06.157Z,3.20
2019-03-10T04:18:36.005Z,3.67
2019-03-10T04:21:05.786Z,3.37
2019-03-10T04:23:35.505Z,3.57
2019-03-10T04:26:05.327Z,3.10
2019-03-10T04:28:35.119Z,3.03
2019-03-10T04:31:04.929Z,3.37
2019-03-10T04:33:34.603Z,3.30
2019-03-10T04:36:04.478Z,3.40
2019-03-10T04:38:34.232Z,3.23
2019-03-10T04:41:04.096Z,3.47
2019-03-10T04:43:33.838Z,3.60
2019-03-10T04:46:03.669Z,4.13
2019-03-10T04:48:33.410Z,3.53
2019-03-10T04:51:03.196Z,3.80
2019-03-10T04:53:32.883Z,3.27
2019-03-10T04:56:04.318Z,3.00
2019-03-10T04:58:35.653Z,3.43
2019-03-10T05:01:05.604Z,3.10
2019-03-10T05:03:35.373Z,3.33
2019-03-10T05:06:05.174Z,3.20
2019-03-10T05:08:34.865Z,3.87
2019-03-10T05:11:04.640Z,3.73
2019-03-10T05:13:34.341Z,3.77
2019-03-10T05:16:04.208Z,3.87
2019-03-10T05:18:33.867Z,3.60
2019-03-10T05:21:03.572Z,3.90
2019-03-10T05:23:35.781Z,3.63
2019-03-10T05:26:05.625Z,3.20
2019-03-10T05:28:41.126Z,3.70
2019-03-10T05:31:10.982Z,3.63
2019-03-10T05:33:40.923Z,3.07
2019-03-10T05:36:10.770Z,3.30
2019-03-10T05:38:40.642Z,4.00
2019-03-10T05:41:10.414Z,3.90
2019-03-10T05:43:40.287Z,3.33
2019-03-10T05:46:10.051Z,3.13
2019-03-10T05:48:39.800Z,3.50
2019-03-10T05:51:09.571Z,3.80
2019-03-10T05:53:39.380Z,3.83
2019-03-10T05:56:09.058Z,3.43
2019-03-10T05:58:38.833Z,4.50
2019-03-10T06:01:21.570Z,3.73
2019-03-10T06:03:54.198Z,3.30
2019-03-10T06:06:23.991Z,3.53
2019-03-10T06:08:53.800Z,3.10
2019-03-10T06:11:30.026Z,3.30
2019-03-10T06:14:02.232Z,3.80
2019-03-10T06:16:33.067Z,3.57
2019-03-10T06:19:07.208Z,4.30
2019-03-10T06:21:38.712Z,3.90
2019-03-10T06:24:08.397Z,3.10
2019-03-10T06:26:38.060Z,3.03
2019-03-10T06:29:07.871Z,3.47
2019-03-10T06:31:37.807Z,3.70
2019-03-10T06:34:08.199Z,3.70
2019-03-10T06:36:38.560Z,3.10
2019-03-10T06:39:08.393Z,3.33
2019-03-10T06:41:38.383Z,3.13
2019-03-10T06:44:08.203Z,3.33
2019-03-10T06:46:37.983Z,3.33
2019-03-10T06:49:07.687Z,4.03
2019-03-10T06:51:37.496Z,3.37
2019-03-10T06:54:07.244Z,3.93
2019-03-10T06:56:36.937Z,2.70
2019-03-10T06:59:06.619Z,3.10
2019-03-10T07:01:36.396Z,3.83
2019-03-10T07:04:06.130Z,3.57
2019-03-10T07:06:35.838Z,3.40
2019-03-10T07:09:05.784Z,3.77
2019-03-10T07:11:35.506Z,3.63
2019-03-10T07:14:05.308Z,3.47
2019-03-10T07:16:34.997Z,3.13
2019-03-10T07:19:04.685Z,4.20
2019-03-10T07:21:34.387Z,3.37
2019-03-10T07:24:04.132Z,4.20
2019-03-10T07:26:33.814Z,3.53
2019-03-10T07:29:08.324Z,3.70
2019-03-10T07:31:48.944Z,3.60
2019-03-10T07:34:36.427Z,3.90
2019-03-10T07:37:07.883Z,3.40
2019-03-10T07:39:47.779Z,3.60
2019-03-10T07:42:19.128Z,3.57
2019-03-10T07:44:53.107Z,4.27
2019-03-10T07:47:33.531Z,3.67
2019-03-10T07:50:05.028Z,4.47
2019-03-10T07:52:52.948Z,4.67
2019-03-10T07:55:39.360Z,3.57
2019-03-10T07:58:25.662Z,4.00
2019-03-10T08:01:13.068Z,3.23
2019-03-10T08:03:53.517Z,3.90
2019-03-10T08:06:27.319Z,3.90
2019-03-10T08:09:10.916Z,4.00
2019-03-10T08:11:47.990Z,3.70
2019-03-10T08:14:35.456Z,3.47
2019-03-10T08:17:09.287Z,3.30
2019-03-10T08:19:46.540Z,2.83
2019-03-10T08:22:36.322Z,3.13
2019-03-10T08:25:09.121Z,3.87
2019-03-10T08:27:46.219Z,3.03
2019-03-10T08:30:27.846Z,3.27
2019-03-10T08:32:59.278Z,3.23
2019-03-10T08:35:33.327Z,3.27
2019-03-10T08:38:22.957Z,3.43
2019-03-10T08:41:10.472Z,2.50
2019-03-10T08:43:41.801Z,3.53
2019-03-10T08:46:19.414Z,3.23
2019-03-10T08:48:50.768Z,2.73
2019-03-10T08:51:33.936Z,2.40
2019-03-10T08:54:05.453Z,2.97
2019-03-10T08:56:39.827Z,2.60
2019-03-10T08:59:17.383Z,2.43
2019-03-10T09:01:51.911Z,2.80
2019-03-10T09:04:29.816Z,2.50
2019-03-10T09:07:02.541Z,2.83
2019-03-10T09:09:39.865Z,2.47
2019-03-10T09:12:20.250Z,2.97
2019-03-10T09:15:07.150Z,3.03
2019-03-10T09:17:44.364Z,3.00
2019-03-10T09:20:24.699Z,2.50
2019-03-10T09:22:59.100Z,2.77
2019-03-10T09:25:47.114Z,3.27
2019-03-10T09:28:21.095Z,3.10
2019-03-10T09:30:58.233Z,3.13
2019-03-10T09:33:32.093Z,3.27
2019-03-10T09:36:05.934Z,3.63
2019-03-10T09:38:37.278Z,3.10
2019-03-10T09:41:11.473Z,3.07
2019-03-10T09:43:55.108Z,2.70
2019-03-10T09:46:26.417Z,2.87
2019-03-10T09:49:14.661Z,3.60
2019-03-10T09:52:02.398Z,3.50
2019-03-10T09:54:36.792Z,3.20
2019-03-10T09:57:24.751Z,3.37
2019-03-10T09:59:56.084Z,3.23
2019-03-10T10:02:33.477Z,3.30
2019-03-10T10:05:10.868Z,3.70
2019-03-10T10:07:42.294Z,3.70
2019-03-10T10:10:13.752Z,3.87
2019-03-10T10:12:54.188Z,4.03
2019-03-10T10:15:25.562Z,4.17
2019-03-10T10:18:08.752Z,4.80
2019-03-10T10:20:56.312Z,4.13
2019-03-10T10:23:45.613Z,4.27
2019-03-10T10:26:20.414Z,3.80
2019-03-10T10:28:51.816Z,4.10
2019-03-10T10:31:41.685Z,3.70
2019-03-10T10:34:31.773Z,3.60
2019-03-10T10:37:11.771Z,3.30
2019-03-10T10:39:46.028Z,3.37
2019-03-10T10:42:33.853Z,3.17
2019-03-10T10:45:05.398Z,3.30
2019-03-10T10:47:39.355Z,3.50
2019-03-10T10:50:15.013Z,3.33
2019-03-10T10:53:01.146Z,3.83
2019-03-10T10:55:41.189Z,3.47
2019-03-10T10:58:24.152Z,3.50
2019-03-10T11:00:59.787Z,3.80
2019-03-10T11:03:36.205Z,3.63
2019-03-10T11:06:24.420Z,3.60
2019-03-10T11:08:59.921Z,3.27
2019-03-10T11:11:38.471Z,3.60
2019-03-10T11:14:20.886Z,3.53
2019-03-10T11:16:53.574Z,4.37
2019-03-10T11:19:27.130Z,3.70
2019-03-10T11:22:05.078Z,3.77
2019-03-10T11:24:38.338Z,3.47
2019-03-10T11:27:11.050Z,3.13
2019-03-10T11:29:47.542Z,3.50
2019-03-10T11:32:34.751Z,3.70
2019-03-10T11:35:09.527Z,3.40
2019-03-10T11:37:49.947Z,3.57
2019-03-10T11:40:26.206Z,3.23
2019-03-10T11:43:11.241Z,3.60
2019-03-10T11:45:46.187Z,4.30
2019-03-10T11:48:41.035Z,3.83
2019-03-10T11:51:24.042Z,3.60
2019-03-10T11:53:58.092Z,3.63
2019-03-10T11:56:49.286Z,3.80
2019-03-10T11:59:22.552Z,3.60
2019-03-10T12:02:16.250Z,3.93
2019-03-10T12:05:03.525Z,4.20
2019-03-10T12:07:37.787Z,3.43
2019-03-10T12:10:11.087Z,3.20
2019-03-10T12:12:42.807Z,3.80
2019-03-10T12:15:15.304Z,3.77
2019-03-10T12:17:46.947Z,3.93
2019-03-10T12:20:18.666Z,4.73
2019-03-10T12:22:50.295Z,3.90
2019-03-10T12:25:22.566Z,4.00
2019-03-10T12:27:55.633Z,4.00
2019-03-10T12:30:27.207Z,4.20
2019-03-10T12:32:59.452Z,4.83
2019-03-10T12:35:34.606Z,4.90
2019-03-10T12:38:05.100Z,5.53
2019-03-10T12:40:36.871Z,5.50
2019-03-10T12:43:08.316Z,5.90
2019-03-10T12:45:39.563Z,5.60
2019-03-10T12:48:12.901Z,5.47
2019-03-10T12:50:45.399Z,5.00
2019-03-10T12:53:17.003Z,5.33
2019-03-10T12:55:48.974Z,5.33
2019-03-10T12:58:24.800Z,5.70
2019-03-10T13:01:05.686Z,5.77
2019-03-10T13:03:28.739Z,5.43
2019-03-10T13:06:00.285Z,5.97
2019-03-10T13:08:30.877Z,5.57
2019-03-10T13:11:03.591Z,4.97
2019-03-10T13:13:34.534Z,5.03
2019-03-10T13:16:06.716Z,5.60
2019-03-10T13:18:39.594Z,5.37
2019-03-10T13:21:10.838Z,5.63
2019-03-10T13:23:42.486Z,5.70
2019-03-10T13:26:20.221Z,5.40
2019-03-10T13:28:48.597Z,6.10
2019-03-10T13:31:19.901Z,5.97
2019-03-10T13:33:50.796Z,6.77
2019-03-10T13:36:21.825Z,6.17
2019-03-10T13:38:54.039Z,7.30
2019-03-10T13:41:25.239Z,6.23
2019-03-10T13:43:57.303Z,6.60
2019-03-10T13:46:28.492Z,6.60
2019-03-10T13:48:59.683Z,7.20
2019-03-10T13:51:29.534Z,6.40
2019-03-10T13:54:00.653Z,6.07
2019-03-10T13:56:30.352Z,6.37
2019-03-10T13:59:00.232Z,6.33
2019-03-10T14:01:30.070Z,7.17
2019-03-10T14:04:00.304Z,6.93
2019-03-10T14:06:30.668Z,7.00
2019-03-10T14:09:00.431Z,6.67
2019-03-10T14:11:30.226Z,5.83
2019-03-10T14:14:00.009Z,6.33
2019-03-10T14:16:29.955Z,6.27
2019-03-10T14:18:59.717Z,4.87
2019-03-10T14:21:29.449Z,5.50
2019-03-10T14:23:59.403Z,4.97
2019-03-10T14:26:29.299Z,5.53
2019-03-10T14:28:59.295Z,5.37
2019-03-10T14:31:29.010Z,5.47
2019-03-10T14:33:58.850Z,5.27
2019-03-10T14:36:28.652Z,5.53
2019-03-10T14:41:27.247Z,5.27
2019-03-10T14:43:57.009Z,5.73
2019-03-10T14:46:26.810Z,5.17
2019-03-10T14:48:56.537Z,5.37
2019-03-10T14:51:26.399Z,6.27
2019-03-10T14:53:56.152Z,6.00
2019-03-10T14:56:26.095Z,5.83
2019-03-10T14:58:55.848Z,5.50
2019-03-10T15:01:25.670Z,5.77
2019-03-10T15:03:55.407Z,4.97
2019-03-10T15:06:25.621Z,4.83
2019-03-10T15:08:55.310Z,5.50
2019-03-10T15:11:24.983Z,5.87
2019-03-10T15:13:54.658Z,6.73
2019-03-10T15:16:24.475Z,5.93
2019-03-10T15:18:54.353Z,6.33
2019-03-10T15:21:24.059Z,7.00
2019-03-10T15:23:53.811Z,7.07
2019-03-10T15:26:23.591Z,7.40
2019-03-10T15:28:54.971Z,7.43
2019-03-10T15:31:24.914Z,7.30
2019-03-10T15:33:54.784Z,7.43
2019-03-10T15:36:24.519Z,8.07
2019-03-10T15:38:54.293Z,7.33
2019-03-10T15:41:24.015Z,6.57
2019-03-10T15:43:53.698Z,6.63
2019-03-10T15:46:23.355Z,6.67
2019-03-10T15:48:53.089Z,5.83
2019-03-10T15:51:24.638Z,6.00
2019-03-10T15:53:54.437Z,5.30
2019-03-10T15:56:25.912Z,3.90
2019-03-10T15:58:58.178Z,4.70
2019-03-10T16:01:27.986Z,4.03
2019-03-10T16:04:00.997Z,3.90
2019-03-10T16:06:30.998Z,3.80
2019-03-10T16:09:00.749Z,3.67
2019-03-10T16:11:30.473Z,3.90
2019-03-10T16:14:00.213Z,4.33
2019-03-10T16:16:30.013Z,4.47
2019-03-10T16:18:59.685Z,4.00
2019-03-10T16:21:29.423Z,4.03
2019-03-10T16:23:59.248Z,4.60
2019-03-10T16:26:28.917Z,4.40
2019-03-10T16:28:58.718Z,3.80
2019-03-10T16:31:28.440Z,3.60
2019-03-10T16:33:58.082Z,4.00
2019-03-10T16:36:27.767Z,3.80
2019-03-10T16:38:57.547Z,4.80
2019-03-10T16:41:27.296Z,4.20
2019-03-10T16:43:57.048Z,4.93
2019-03-10T16:46:26.811Z,5.70
2019-03-10T16:48:56.529Z,6.10
2019-03-10T16:51:27.312Z,5.90
2019-03-10T16:53:57.713Z,6.13
2019-03-10T16:56:29.079Z,6.87
2019-03-10T16:58:59.124Z,6.97
2019-03-10T17:01:29.348Z,6.33
2019-03-10T17:03:59.179Z,5.67
2019-03-10T17:06:28.991Z,4.43
2019-03-10T17:08:58.825Z,4.67
2019-03-10T17:11:28.737Z,6.33
2019-03-10T17:14:01.496Z,7.20
2019-03-10T17:16:31.251Z,7.70
2019-03-10T17:19:01.027Z,8.73
2019-03-10T17:21:30.845Z,7.60
2019-03-10T17:24:00.580Z,7.00
2019-03-10T17:26:31.150Z,6.30
2019-03-10T17:29:00.851Z,7.57
2019-03-10T17:31:30.527Z,7.07
2019-03-10T17:34:00.254Z,6.97
2019-03-10T17:36:29.956Z,7.97
2019-03-10T17:38:59.716Z,9.73
2019-03-10T17:41:29.542Z,10.23
2019-03-10T17:43:59.787Z,8.87
2019-03-10T17:46:29.895Z,7.73
2019-03-10T17:48:59.633Z,8.17
2019-03-10T17:51:29.495Z,8.03
2019-03-10T17:53:59.198Z,7.60
2019-03-10T17:56:28.919Z,8.50
2019-03-10T17:58:59.282Z,9.10
2019-03-10T18:01:29.168Z,8.07
2019-03-10T18:03:59.625Z,7.87
2019-03-10T18:06:29.862Z,8.47
2019-03-10T18:09:00.323Z,7.90
2019-03-10T18:11:30.061Z,7.53
2019-03-10T18:13:59.817Z,7.50
2019-03-10T18:16:29.686Z,6.97
2019-03-10T18:19:03.607Z,7.37
2019-03-10T18:21:34.714Z,7.73
2019-03-10T18:24:04.580Z,8.33
2019-03-10T18:26:34.390Z,9.77
2019-03-10T18:29:04.150Z,10.37
2019-03-10T18:31:33.848Z,12.13
2019-03-10T18:34:03.639Z,12.07
2019-03-10T18:36:33.393Z,12.37
2019-03-10T18:39:04.615Z,11.87
2019-03-10T18:41:34.385Z,11.07
2019-03-10T18:44:04.179Z,10.23
2019-03-10T18:46:33.910Z,9.80
2019-03-10T18:49:03.740Z,8.73
2019-03-10T18:51:33.494Z,8.17
2019-03-10T18:54:03.380Z,8.77
2019-03-10T18:56:33.163Z,8.33
2019-03-10T18:59:03.361Z,7.87
2019-03-10T19:01:36.306Z,8.47
2019-03-10T19:04:09.693Z,7.27
2019-03-10T19:06:45.934Z,6.70
2019-03-10T19:09:21.246Z,6.50
2019-03-10T19:11:53.676Z,7.03
2019-03-10T19:14:33.277Z,6.47
2019-03-10T19:17:08.446Z,7.03
2019-03-10T19:19:38.245Z,6.60
2019-03-10T19:22:08.341Z,7.10
2019-03-10T19:24:38.853Z,7.70
2019-03-10T19:27:09.385Z,7.00
2019-03-10T19:29:39.180Z,7.47
2019-03-10T19:32:09.620Z,8.00
2019-03-10T19:34:39.908Z,7.27
2019-03-10T19:37:10.330Z,7.70
2019-03-10T19:39:40.819Z,7.60
2019-03-10T19:42:11.428Z,7.53
2019-03-10T19:44:41.374Z,7.07
2019-03-10T19:47:11.307Z,8.13
2019-03-10T19:49:42.322Z,8.97
2019-03-10T19:52:12.002Z,8.60
2019-03-10T19:54:41.759Z,8.27
2019-03-10T19:57:11.533Z,8.60
2019-03-10T19:59:41.387Z,8.17
2019-03-10T20:02:13.903Z,6.73
2019-03-10T20:04:43.669Z,7.10
2019-03-10T20:07:13.533Z,7.37
2019-03-10T20:09:43.268Z,6.90
2019-03-10T20:12:13.265Z,7.60
2019-03-10T20:14:43.261Z,6.90
2019-03-10T20:17:13.722Z,6.70
2019-03-10T20:19:47.453Z,6.90
2019-03-10T20:22:18.249Z,6.67
2019-03-10T20:24:52.796Z,5.97
2019-03-10T20:27:38.701Z,6.07
2019-03-10T20:30:10.262Z,6.63
2019-03-10T20:32:44.292Z,6.23
2019-03-10T20:35:25.068Z,5.57
2019-03-10T20:37:55.010Z,5.43
2019-03-10T20:40:29.302Z,5.80
2019-03-10T20:43:00.839Z,5.40
2019-03-10T20:45:30.844Z,5.43
2019-03-10T20:48:01.371Z,5.13
2019-03-10T20:50:33.730Z,5.60
2019-03-10T20:53:03.990Z,5.23
2019-03-10T20:55:33.773Z,5.50
2019-03-10T20:58:03.531Z,6.20
2019-03-10T21:00:35.333Z,5.53
2019-03-10T21:03:06.571Z,5.50
2019-03-10T21:05:37.352Z,6.63
2019-03-10T21:08:09.085Z,7.33
2019-03-10T21:10:38.820Z,6.93
2019-03-10T21:13:08.731Z,6.83
2019-03-10T21:15:39.023Z,6.97
2019-03-10T21:18:08.776Z,6.93
2019-03-10T21:20:38.691Z,6.07
2019-03-10T21:23:08.586Z,6.43
2019-03-10T21:25:38.366Z,5.67
2019-03-10T21:28:08.505Z,6.07
2019-03-10T21:30:38.379Z,6.30
2019-03-10T21:33:08.093Z,7.40
2019-03-10T21:35:37.806Z,7.67
2019-03-10T21:38:07.707Z,7.27
2019-03-10T21:40:37.404Z,8.13
2019-03-10T21:43:07.123Z,8.63
2019-03-10T21:45:36.874Z,8.67
2019-03-10T21:48:06.530Z,9.17
2019-03-10T21:50:36.275Z,9.17
2019-03-10T21:53:06.030Z,8.63
2019-03-10T21:55:35.719Z,8.70
2019-03-10T21:58:05.494Z,8.80
2019-03-10T22:00:35.263Z,8.23
2019-03-10T22:03:05.028Z,8.20
2019-03-10T22:05:34.808Z,8.20
2019-03-10T22:08:04.553Z,8.00
2019-03-10T22:10:35.104Z,7.07
2019-03-10T22:13:05.047Z,7.07
2019-03-10T22:15:41.704Z,6.00
2019-03-10T22:18:06.225Z,5.60
2019-03-10T22:20:35.941Z,6.30
2019-03-10T22:23:05.654Z,6.27
2019-03-10T22:25:35.569Z,5.70
2019-03-10T22:28:05.325Z,6.17
2019-03-10T22:30:34.979Z,6.17
2019-03-10T22:33:04.849Z,5.33
2019-03-10T22:35:34.669Z,5.70
2019-03-10T22:38:04.487Z,5.40
2019-03-10T22:40:34.290Z,5.37
2019-03-10T22:43:04.046Z,5.60
2019-03-10T22:45:33.810Z,5.33
2019-03-10T22:48:03.593Z,5.67
2019-03-10T22:50:33.275Z,6.17
2019-03-10T22:53:03.316Z,5.73
2019-03-10T22:55:33.127Z,6.10
2019-03-10T22:58:02.867Z,6.13
2019-03-10T23:00:46.263Z,6.33
2019-03-10T23:03:16.112Z,6.27
2019-03-10T23:05:45.832Z,6.00
2019-03-10T23:08:15.541Z,6.37
2019-03-10T23:10:45.206Z,6.27
2019-03-10T23:13:14.895Z,5.73
2019-03-10T23:15:44.780Z,6.60
2019-03-10T23:18:14.578Z,6.33
2019-03-10T23:20:44.414Z,6.80
2019-03-10T23:23:14.164Z,5.87
2019-03-10T23:25:43.940Z,7.10
2019-03-10T23:28:13.673Z,5.13
2019-03-10T23:30:43.404Z,5.87
2019-03-10T23:33:13.130Z,6.10
2019-03-10T23:35:42.779Z,5.00
2019-03-10T23:38:12.498Z,4.80
2019-03-10T23:40:42.193Z,4.67
2019-03-10T23:43:11.911Z,5.37
2019-03-10T23:45:41.614Z,4.30
2019-03-10T23:48:11.458Z,4.63
2019-03-10T23:50:41.255Z,4.27
2019-03-10T23:53:10.934Z,4.07
2019-03-10T23:55:40.606Z,3.67
2019-03-10T23:58:10.348Z,3.90
